Time;durP1;ratioP1;P1;durP2;ratioP2;P2;SDS_P1;SDS_P2;PMS_P1;PMS_P2;Temp;Humidity;BMP_temperature;BMP_pressure;BME280_temperature;BME280_humidity;BME280_pressure;Samples;Min_cycle;Max_cycle;Signal;HPM_P1;HPM_P2
2021/01/14 00:01:20;;;;;;;13.00;1.58;;;4.20;99.90;;;;;;5090549;28;20039;-68
2021/01/14 00:03:46;;;;;;;12.25;1.52;;;4.20;99.90;;;;;;5092154;28;20187;-69
2021/01/14 00:06:12;;;;;;;5.07;1.35;;;4.20;99.90;;;;;;5091463;28;20036;-71
2021/01/14 00:08:38;;;;;;;10.43;1.52;;;4.20;99.90;;;;;;5091585;28;20031;-68
2021/01/14 00:11:03;;;;;;;5.88;1.42;;;4.20;99.90;;;;;;5092012;28;20028;-69
2021/01/14 00:13:30;;;;;;;10.70;1.13;;;4.20;99.90;;;;;;5091988;28;20027;-69
2021/01/14 00:15:56;;;;;;;4.43;1.00;;;4.20;99.90;;;;;;5091693;28;20020;-68
2021/01/14 00:18:21;;;;;;;6.43;1.35;;;4.20;99.90;;;;;;5091338;28;20099;-68
2021/01/14 00:20:47;;;;;;;11.13;1.60;;;4.20;99.90;;;;;;5090731;28;20028;-68
2021/01/14 00:23:12;;;;;;;8.45;1.25;;;4.20;99.90;;;;;;5091050;28;20066;-68
2021/01/14 00:25:38;;;;;;;9.45;1.10;;;4.20;99.90;;;;;;5091327;28;20043;-68
2021/01/14 00:28:04;;;;;;;4.28;1.13;;;4.20;99.90;;;;;;5090721;28;20093;-68
2021/01/14 00:30:30;;;;;;;9.75;1.45;;;4.20;99.90;;;;;;5091263;28;20085;-68
2021/01/14 00:32:57;;;;;;;10.57;1.50;;;4.10;99.90;;;;;;5091486;28;20100;-68
2021/01/14 00:35:24;;;;;;;5.93;1.10;;;4.20;99.90;;;;;;5089590;28;20048;-67
2021/01/14 00:37:55;;;;;;;7.95;1.00;;;4.20;99.90;;;;;;5077609;28;20020;-68
2021/01/14 00:40:27;;;;;;;6.07;1.30;;;4.10;99.90;;;;;;5091252;28;20430;-68
2021/01/14 00:43:04;;;;;;;3.78;0.98;;;4.20;99.90;;;;;;5090957;28;20016;-68
2021/01/14 00:45:31;;;;;;;9.18;2.33;;;4.20;99.90;;;;;;5090859;28;20383;-68
2021/01/14 00:47:58;;;;;;;7.03;1.40;;;4.10;99.90;;;;;;5091133;28;20027;-67
2021/01/14 00:50:23;;;;;;;5.75;1.02;;;4.10;99.90;;;;;;5090103;28;20060;-68
2021/01/14 00:52:49;;;;;;;7.75;1.48;;;4.10;99.90;;;;;;5090864;28;20048;-68
2021/01/14 00:55:16;;;;;;;4.97;1.60;;;4.10;99.90;;;;;;5090962;28;20081;-67
2021/01/14 00:57:42;;;;;;;7.47;1.30;;;4.10;99.90;;;;;;5090170;28;20098;-68
2021/01/14 01:00:11;;;;;;;4.88;1.25;;;4.10;99.90;;;;;;5090874;28;20079;-68
2021/01/14 01:02:40;;;;;;;8.55;1.30;;;4.10;99.90;;;;;;5090474;28;20143;-69
2021/01/14 01:05:07;;;;;;;4.70;1.10;;;4.10;99.90;;;;;;5090006;28;20465;-68
2021/01/14 01:07:32;;;;;;;9.85;1.30;;;4.20;99.90;;;;;;5090635;28;20234;-68
2021/01/14 01:09:58;;;;;;;8.70;1.20;;;4.10;99.90;;;;;;5090362;28;20016;-68
2021/01/14 01:12:23;;;;;;;7.22;1.27;;;4.20;99.90;;;;;;5091095;28;20558;-69
2021/01/14 01:14:49;;;;;;;6.65;1.30;;;4.10;99.90;;;;;;5090708;28;20051;-69
2021/01/14 01:17:14;;;;;;;3.90;0.90;;;4.10;99.90;;;;;;5090028;28;20115;-68
2021/01/14 01:19:40;;;;;;;6.93;1.17;;;4.10;99.90;;;;;;5090817;28;20056;-68
2021/01/14 01:22:05;;;;;;;11.93;1.45;;;4.10;99.90;;;;;;5090880;28;20028;-68
2021/01/14 01:24:31;;;;;;;6.85;1.02;;;4.10;99.90;;;;;;5090134;28;20107;-68
2021/01/14 01:26:57;;;;;;;9.20;1.42;;;4.00;99.90;;;;;;5091589;28;20103;-67
2021/01/14 01:29:22;;;;;;;8.75;1.27;;;4.10;99.90;;;;;;5091101;28;20115;-69
2021/01/14 01:31:49;;;;;;;12.10;2.17;;;4.10;99.90;;;;;;5090521;28;20078;-69
2021/01/14 01:34:15;;;;;;;6.45;1.13;;;4.10;99.90;;;;;;5090669;28;20032;-68
2021/01/14 01:36:41;;;;;;;8.02;1.50;;;4.00;99.90;;;;;;5079140;28;20052;-68
2021/01/14 01:39:07;;;;;;;10.80;1.30;;;4.00;99.90;;;;;;5087273;28;20028;-68
2021/01/14 01:41:33;;;;;;;8.15;1.30;;;4.00;99.90;;;;;;5090446;28;20111;-69
2021/01/14 01:43:58;;;;;;;9.60;1.63;;;4.00;99.90;;;;;;5090415;28;20025;-67
2021/01/14 01:46:29;;;;;;;5.00;1.20;;;4.00;99.90;;;;;;5089528;28;20462;-67
2021/01/14 01:48:55;;;;;;;;;;;4.00;99.90;;;;;;5091184;28;20386;-68
2021/01/14 01:51:23;;;;;;;4.95;1.30;;;4.00;99.90;;;;;;5089979;28;20268;-69
2021/01/14 01:53:49;;;;;;;4.95;1.30;;;4.00;99.90;;;;;;5090093;28;20040;-68
2021/01/14 01:56:17;;;;;;;11.13;1.40;;;4.00;99.90;;;;;;5090202;28;20047;-68
2021/01/14 01:58:44;;;;;;;3.25;1.30;;;4.00;99.90;;;;;;5090386;28;20417;-68
2021/01/14 02:01:09;;;;;;;13.35;1.38;;;3.90;99.90;;;;;;5089650;28;20024;-68
2021/01/14 02:03:35;;;;;;;8.48;2.00;;;3.90;99.90;;;;;;5090179;28;20081;-69
2021/01/14 02:06:01;;;;;;;5.05;1.10;;;3.90;99.90;;;;;;5089953;28;20048;-69
2021/01/14 02:08:49;;;;;;;4.22;1.00;;;3.90;99.90;;;;;;5089783;28;20016;-68
2021/01/14 02:11:28;;;;;;;9.48;1.98;;;4.00;99.90;;;;;;5091533;28;20078;-68
2021/01/14 02:14:16;;;;;;;13.13;1.20;;;3.90;99.90;;;;;;5093489;28;20032;-68
2021/01/14 02:16:46;;;;;;;7.05;1.20;;;3.90;99.90;;;;;;5094032;28;20070;-70
2021/01/14 02:19:37;;;;;;;8.60;1.23;;;3.90;99.90;;;;;;5094086;28;20032;-68
2021/01/14 02:22:11;;;;;;;4.72;1.02;;;3.90;99.90;;;;;;5093611;28;20020;-69
2021/01/14 02:25:08;;;;;;;4.05;0.98;;;3.90;99.90;;;;;;5093571;28;20472;-69
2021/01/14 02:27:36;;;;;;;3.35;1.15;;;3.90;99.90;;;;;;5082779;28;20036;-68
2021/01/14 02:30:04;;;;;;;9.30;1.13;;;3.90;99.90;;;;;;5093617;28;20020;-68
2021/01/14 02:32:29;;;;;;;7.75;1.10;;;3.80;99.90;;;;;;5093581;28;20450;-68
2021/01/14 02:34:55;;;;;;;5.65;1.15;;;3.80;99.90;;;;;;5092522;28;20016;-67
2021/01/14 02:37:21;;;;;;;6.75;1.45;;;3.80;99.90;;;;;;5079260;28;20021;-68
2021/01/14 02:39:46;;;;;;;5.32;1.10;;;3.80;99.90;;;;;;5093640;28;20028;-68
2021/01/14 02:42:12;;;;;;;8.68;3.45;;;3.80;99.90;;;;;;5092902;28;20034;-68
2021/01/14 02:44:37;;;;;;;2.17;0.80;;;3.80;99.90;;;;;;5093479;28;20376;-67
2021/01/14 02:47:05;;;;;;;7.60;1.25;;;3.70;99.90;;;;;;5093443;28;20071;-68
2021/01/14 02:49:39;;;;;;;5.40;0.93;;;3.80;99.90;;;;;;5092172;28;20020;-68
2021/01/14 02:52:06;;;;;;;3.40;1.20;;;3.80;99.90;;;;;;5093531;28;20363;-68
2021/01/14 02:54:33;;;;;;;12.88;1.65;;;3.70;99.90;;;;;;5092976;28;20385;-68
2021/01/14 02:56:59;;;;;;;6.68;1.25;;;3.70;99.90;;;;;;5092403;28;20028;-68
2021/01/14 02:59:25;;;;;;;8.40;1.23;;;3.70;99.90;;;;;;5092916;28;20329;-68
2021/01/14 03:01:50;;;;;;;10.00;1.35;;;3.70;99.90;;;;;;5093078;28;20012;-67
2021/01/14 03:04:16;;;;;;;4.35;1.17;;;3.70;99.90;;;;;;5092841;28;20043;-67
2021/01/14 03:06:41;;;;;;;5.60;1.15;;;3.70;99.90;;;;;;5094022;28;20028;-68
2021/01/14 03:09:07;;;;;;;4.30;1.15;;;3.70;99.90;;;;;;5093478;28;20046;-68
2021/01/14 03:11:34;;;;;;;6.95;1.10;;;3.70;99.90;;;;;;5091866;28;20057;-68
2021/01/14 03:14:00;;;;;;;7.03;1.25;;;3.70;99.90;;;;;;5092862;28;20020;-67
2021/01/14 03:16:26;;;;;;;3.45;0.90;;;3.70;99.90;;;;;;5073209;28;20036;-67
2021/01/14 03:18:52;;;;;;;4.28;1.00;;;3.60;99.90;;;;;;5074056;28;20020;-68
2021/01/14 03:21:22;;;;;;;5.97;1.48;;;3.70;99.90;;;;;;5077825;28;20426;-68
2021/01/14 03:23:48;;;;;;;9.97;1.80;;;3.60;99.90;;;;;;5088606;28;20017;-68
2021/01/14 03:26:14;;;;;;;13.90;1.17;;;3.60;99.90;;;;;;5081844;28;20491;-68
2021/01/14 03:28:41;;;;;;;4.30;1.48;;;3.60;99.90;;;;;;5092524;28;20062;-67
2021/01/14 03:31:06;;;;;;;5.07;1.08;;;3.50;99.90;;;;;;5091922;28;20024;-67
2021/01/14 03:33:32;;;;;;;6.85;2.33;;;3.50;99.90;;;;;;5078250;28;20036;-67
2021/01/14 03:35:58;;;;;;;7.03;2.03;;;3.50;99.90;;;;;;5091564;28;20054;-67
2021/01/14 03:38:24;;;;;;;8.48;2.20;;;3.50;99.90;;;;;;5091611;28;20025;-68
2021/01/14 03:40:49;;;;;;;8.07;2.05;;;3.40;99.90;;;;;;5092231;28;20023;-69
2021/01/14 03:43:15;;;;;;;6.60;2.65;;;3.50;99.90;;;;;;5091975;28;20025;-68
2021/01/14 03:45:41;;;;;;;7.80;2.30;;;3.50;99.90;;;;;;5091225;28;20181;-68
2021/01/14 03:48:07;;;;;;;8.13;2.67;;;3.40;99.90;;;;;;5092152;28;20078;-68
2021/01/14 03:50:32;;;;;;;8.32;2.67;;;3.40;99.90;;;;;;5078986;28;20040;-68
2021/01/14 03:52:58;;;;;;;4.05;1.45;;;3.50;99.90;;;;;;5090469;28;20008;-68
2021/01/14 03:55:25;;;;;;;4.55;1.40;;;3.50;99.90;;;;;;5092117;28;20031;-68
2021/01/14 03:57:51;;;;;;;7.28;1.40;;;3.50;99.90;;;;;;5092188;28;20027;-68
2021/01/14 04:00:17;;;;;;;6.55;1.67;;;3.40;99.90;;;;;;5090996;28;20032;-68
2021/01/14 04:02:43;;;;;;;4.88;1.30;;;3.40;99.90;;;;;;5091808;28;20536;-68
2021/01/14 04:05:09;;;;;;;4.82;1.23;;;3.40;99.90;;;;;;5092042;28;20131;-68
2021/01/14 04:07:35;;;;;;;5.63;1.35;;;3.40;99.90;;;;;;5091058;28;20024;-68
2021/01/14 04:10:03;;;;;;;6.65;1.48;;;3.40;99.90;;;;;;5091876;28;20386;-68
2021/01/14 04:12:29;;;;;;;1.67;0.93;;;3.40;99.90;;;;;;5091575;28;20031;-68
2021/01/14 04:14:57;;;;;;;5.32;1.30;;;3.30;99.90;;;;;;5091393;28;20020;-68
2021/01/14 04:17:23;;;;;;;6.90;1.55;;;3.40;99.90;;;;;;5091509;28;20110;-68
2021/01/14 04:19:48;;;;;;;4.10;1.40;;;3.40;99.90;;;;;;5091443;28;20444;-68
2021/01/14 04:22:14;;;;;;;5.05;1.70;;;3.40;99.90;;;;;;5091500;28;20356;-68
2021/01/14 04:24:40;;;;;;;4.82;1.67;;;3.30;99.90;;;;;;5077618;28;20040;-68
2021/01/14 04:27:06;;;;;;;6.45;1.30;;;3.30;99.90;;;;;;5089646;28;20054;-68
2021/01/14 04:29:32;;;;;;;10.48;1.83;;;3.30;99.90;;;;;;5091236;28;20024;-68
2021/01/14 04:31:58;;;;;;;5.43;1.30;;;3.30;99.90;;;;;;5091566;28;20054;-68
2021/01/14 04:34:23;;;;;;;4.60;1.40;;;3.20;99.90;;;;;;5090241;28;20455;-68
2021/01/14 04:37:00;;;;;;;4.38;0.98;;;3.30;99.90;;;;;;5091133;28;20467;-67
2021/01/14 04:39:26;;;;;;;7.88;2.20;;;3.30;99.90;;;;;;5091088;28;20036;-67
2021/01/14 04:41:56;;;;;;;4.80;1.83;;;3.20;99.90;;;;;;5090401;28;20503;-67
2021/01/14 04:44:22;;;;;;;6.40;1.80;;;3.20;99.90;;;;;;5090946;28;20016;-67
2021/01/14 04:46:49;;;;;;;3.20;1.00;;;3.20;99.90;;;;;;5091102;28;20126;-67
2021/01/14 04:49:17;;;;;;;2.38;0.98;;;3.20;99.90;;;;;;5090138;28;20016;-67
2021/01/14 04:51:45;;;;;;;5.00;0.90;;;3.20;99.90;;;;;;5091239;28;20031;-68
2021/01/14 04:54:15;;;;;;;7.28;1.48;;;3.20;99.90;;;;;;5091070;28;20017;-67
2021/01/14 04:56:46;;;;;;;6.73;1.40;;;3.00;99.90;;;;;;5090898;28;20048;-67
2021/01/14 04:59:17;;;;;;;9.90;1.38;;;3.20;99.90;;;;;;5091485;28;20016;-67
2021/01/14 05:01:48;;;;;;;7.35;1.20;;;3.20;99.90;;;;;;5092059;28;20357;-67
2021/01/14 05:04:20;;;;;;;5.38;1.20;;;3.20;99.90;;;;;;5090726;28;20468;-68
2021/01/14 05:06:47;;;;;;;6.30;0.90;;;3.20;99.90;;;;;;5091013;28;20028;-67
2021/01/14 05:09:18;;;;;;;4.03;0.93;;;3.10;99.90;;;;;;5089919;28;20063;-67
2021/01/14 05:11:45;;;;;;;1.60;0.93;;;3.10;99.90;;;;;;5091315;28;20032;-67
2021/01/14 05:14:10;;;;;;;6.53;1.08;;;3.10;99.90;;;;;;5090672;28;20101;-67
2021/01/14 05:16:36;;;;;;;8.38;2.00;;;3.10;99.90;;;;;;5090107;28;20484;-68
2021/01/14 05:19:02;;;;;;;7.80;1.10;;;3.10;99.90;;;;;;5090890;28;20136;-68
2021/01/14 05:21:32;;;;;;;6.65;2.13;;;3.10;99.90;;;;;;5090418;28;20464;-68
2021/01/14 05:24:08;;;;;;;4.88;1.08;;;3.00;99.90;;;;;;5082931;28;20036;-68
2021/01/14 05:26:33;;;;;;;7.53;1.00;;;3.00;99.90;;;;;;5084891;28;20368;-68
2021/01/14 05:29:11;;;;;;;4.78;1.40;;;3.00;99.90;;;;;;5090900;28;20026;-68
2021/01/14 05:31:36;;;;;;;5.55;0.95;;;2.90;99.90;;;;;;5089899;28;20024;-69
2021/01/14 05:34:02;;;;;;;4.32;1.52;;;2.90;99.90;;;;;;5090531;28;20024;-68
2021/01/14 05:36:52;;;;;;;3.53;0.90;;;2.90;99.90;;;;;;5090399;28;20043;-69
2021/01/14 05:39:19;;;;;;;4.47;1.83;;;2.90;99.90;;;;;;5090088;28;20035;-68
2021/01/14 05:41:46;;;;;;;4.00;1.02;;;2.80;99.90;;;;;;5090806;28;20085;-68
2021/01/14 05:44:11;;;;;;;6.75;1.70;;;2.90;99.90;;;;;;5089760;28;20020;-69
2021/01/14 05:46:37;;;;;;;6.50;1.40;;;2.90;99.90;;;;;;5092480;28;20050;-68
2021/01/14 05:49:04;;;;;;;2.90;1.50;;;2.90;99.90;;;;;;5094806;28;20020;-68
2021/01/14 05:51:32;;;;;;;4.60;1.10;;;2.90;99.90;;;;;;5093754;28;20031;-68
2021/01/14 05:54:03;;;;;;;4.38;0.93;;;2.90;99.90;;;;;;5094614;28;20111;-69
2021/01/14 05:56:41;;;;;;;;;;;2.80;99.90;;;;;;5094915;28;20049;-68
2021/01/14 05:59:11;;;;;;;4.78;1.00;;;2.80;99.90;;;;;;5093582;28;19914;-68
2021/01/14 06:01:51;;;;;;;7.28;2.50;;;2.80;99.90;;;;;;5094232;28;20036;-68
2021/01/14 06:04:19;;;;;;;6.30;1.10;;;2.80;99.90;;;;;;5094091;28;20103;-69
2021/01/14 06:06:46;;;;;;;5.18;1.30;;;2.90;99.90;;;;;;5093605;28;20054;-69
2021/01/14 06:09:16;;;;;;;5.15;1.40;;;2.80;99.90;;;;;;5094426;28;20410;-69
2021/01/14 06:11:43;;;;;;;6.93;1.43;;;2.90;99.90;;;;;;5094221;28;20511;-69
2021/01/14 06:14:31;;;;;;;2.05;1.02;;;2.90;99.90;;;;;;5093494;28;20707;-68
2021/01/14 06:16:59;;;;;;;6.60;1.60;;;2.90;99.90;;;;;;5094525;28;20054;-68
2021/01/14 06:19:26;;;;;;;8.90;1.85;;;2.90;99.90;;;;;;5092744;28;20436;-69
2021/01/14 06:21:58;;;;;;;8.20;1.52;;;2.90;99.90;;;;;;5094025;28;20535;-69
2021/01/14 06:24:37;;;;;;;8.60;1.75;;;2.90;99.90;;;;;;5082950;28;20036;-69
2021/01/14 06:27:06;;;;;;;2.88;0.88;;;2.90;99.90;;;;;;5091952;28;20055;-69
2021/01/14 06:29:34;;;;;;;4.30;1.20;;;2.90;99.90;;;;;;5093620;28;20016;-68
2021/01/14 06:32:11;;;;;;;10.85;1.60;;;2.90;99.90;;;;;;5093627;28;20028;-68
2021/01/14 06:34:38;;;;;;;4.57;1.08;;;2.90;99.90;;;;;;5092748;28;20032;-69
2021/01/14 06:37:19;;;;;;;4.40;1.30;;;2.80;99.90;;;;;;5093537;28;20036;-68
2021/01/14 06:39:45;;;;;;;;;;;2.90;99.90;;;;;;5094400;28;20030;-68
2021/01/14 06:42:28;;;;;;;4.85;1.15;;;2.90;99.90;;;;;;5092679;28;19992;-68
2021/01/14 06:45:11;;;;;;;4.45;1.05;;;2.90;99.90;;;;;;5093277;28;20093;-69
2021/01/14 06:47:37;;;;;;;10.95;1.67;;;3.00;99.90;;;;;;5092453;28;20024;-68
2021/01/14 06:50:16;;;;;;;1.65;0.98;;;2.90;99.90;;;;;;5093759;28;20099;-69
2021/01/14 06:52:43;;;;;;;9.23;1.05;;;3.00;99.90;;;;;;5093264;28;20119;-67
2021/01/14 06:55:09;;;;;;;10.05;1.05;;;2.90;99.90;;;;;;5090174;28;20032;-67
2021/01/14 06:57:35;;;;;;;7.93;1.23;;;2.90;99.90;;;;;;5074699;28;20029;-67
2021/01/14 07:00:04;;;;;;;4.80;0.80;;;3.00;99.90;;;;;;5077134;28;20024;-67
2021/01/14 07:02:35;;;;;;;9.02;1.00;;;3.00;99.90;;;;;;5071310;28;20027;-67
2021/01/14 07:05:06;;;;;;;6.68;0.93;;;3.00;99.90;;;;;;5072414;28;20036;-67
2021/01/14 07:07:46;;;;;;;5.43;1.10;;;3.00;99.90;;;;;;5072780;28;20049;-67
2021/01/14 07:10:13;;;;;;;5.93;1.17;;;3.00;99.90;;;;;;5072707;28;20104;-67
2021/01/14 07:12:41;;;;;;;5.70;1.00;;;3.00;99.90;;;;;;5080532;28;20117;-68
2021/01/14 07:15:07;;;;;;;6.85;1.50;;;3.00;99.90;;;;;;5072330;28;20138;-68
2021/01/14 07:17:37;;;;;;;5.35;1.10;;;3.00;99.90;;;;;;5079606;28;20534;-70
2021/01/14 07:20:06;;;;;;;6.78;1.70;;;3.00;99.90;;;;;;5075232;28;20024;-68
2021/01/14 07:22:37;;;;;;;4.30;0.82;;;2.90;99.90;;;;;;5073225;28;20024;-68
2021/01/14 07:25:04;;;;;;;4.88;0.90;;;3.00;99.90;;;;;;5072137;28;20043;-67
2021/01/14 07:27:30;;;;;;;5.90;1.88;;;2.90;99.90;;;;;;5071800;28;20111;-68
2021/01/14 07:29:57;;;;;;;12.27;1.88;;;2.90;99.90;;;;;;5074106;28;20028;-68
2021/01/14 07:32:51;;;;;;;10.55;1.00;;;2.90;99.90;;;;;;5072632;28;20420;-68
2021/01/14 07:35:43;;;;;;;11.68;1.58;;;2.90;99.90;;;;;;5085367;28;20090;-67
2021/01/14 07:38:17;;;;;;;6.70;1.00;;;2.90;99.90;;;;;;5087401;28;20046;-68
2021/01/14 07:40:45;;;;;;;4.90;1.00;;;2.90;99.90;;;;;;5084376;28;20028;-68
2021/01/14 07:43:12;;;;;;;9.07;1.15;;;3.00;99.90;;;;;;5087564;28;20024;-68
2021/01/14 07:45:39;;;;;;;6.45;2.22;;;3.00;99.90;;;;;;5076084;28;20068;-68
2021/01/14 07:48:22;;;;;;;5.35;1.05;;;3.00;99.90;;;;;;5089651;28;20023;-68
2021/01/14 07:50:58;;;;;;;5.60;1.20;;;3.00;99.90;;;;;;5088566;28;20023;-68
2021/01/14 07:53:25;;;;;;;5.20;1.27;;;3.00;99.90;;;;;;5082193;28;20023;-68
2021/01/14 07:55:51;;;;;;;6.97;1.33;;;3.00;99.90;;;;;;5088512;28;20380;-68
2021/01/14 07:58:20;;;;;;;3.90;1.33;;;3.10;99.90;;;;;;5088358;28;20020;-68
2021/01/14 08:01:09;;;;;;;4.43;0.82;;;3.00;99.90;;;;;;5089051;28;20495;-68
2021/01/14 08:03:38;;;;;;;6.82;1.92;;;3.10;99.90;;;;;;5081680;28;20040;-68
2021/01/14 08:06:24;;;;;;;2.30;0.90;;;3.10;99.90;;;;;;5081959;28;20032;-68
2021/01/14 08:08:59;;;;;;;12.60;1.15;;;3.10;99.90;;;;;;5088266;28;20044;-68
2021/01/14 08:11:32;;;;;;;4.10;1.10;;;3.10;99.90;;;;;;5081752;28;20464;-67
2021/01/14 08:14:11;;;;;;;3.13;0.85;;;3.10;99.90;;;;;;5079018;28;20055;-68
2021/01/14 08:16:40;;;;;;;5.70;1.20;;;3.10;99.90;;;;;;5089129;28;20047;-67
2021/01/14 08:19:15;;;;;;;7.20;1.33;;;3.20;99.90;;;;;;5084041;28;20028;-67
2021/01/14 08:21:45;;;;;;;6.35;1.02;;;3.20;99.90;;;;;;5072424;28;20028;-67
2021/01/14 08:24:12;;;;;;;5.45;0.93;;;3.20;99.90;;;;;;5071729;28;20094;-67
2021/01/14 08:26:54;;;;;;;4.40;1.30;;;3.10;99.90;;;;;;5071569;28;20036;-67
2021/01/14 08:29:54;;;;;;;6.25;1.55;;;3.10;99.90;;;;;;5078624;28;20049;-66
2021/01/14 08:32:31;;;;;;;5.07;1.08;;;3.10;99.90;;;;;;5065605;28;20071;-67
2021/01/14 08:34:57;;;;;;;8.10;1.42;;;3.20;99.90;;;;;;5082397;28;20063;-67
2021/01/14 08:37:36;;;;;;;5.72;1.65;;;3.30;99.90;;;;;;5082890;28;20519;-68
2021/01/14 08:40:10;;;;;;;6.55;1.20;;;3.20;99.90;;;;;;5080918;28;20021;-67
2021/01/14 08:42:37;;;;;;;3.35;1.35;;;3.30;99.90;;;;;;5071489;28;20547;-69
2021/01/14 08:45:14;;;;;;;10.55;1.20;;;3.30;99.90;;;;;;5071778;28;20037;-67
2021/01/14 08:47:52;;;;;;;11.05;1.15;;;3.30;99.90;;;;;;5071601;28;20017;-68
2021/01/14 08:50:18;;;;;;;3.80;0.95;;;3.30;99.90;;;;;;5082334;28;20497;-67
2021/01/14 08:52:45;;;;;;;5.88;1.17;;;3.20;99.90;;;;;;5074618;28;20040;-67
2021/01/14 08:55:13;;;;;;;13.90;2.67;;;3.30;99.90;;;;;;5070725;28;20419;-66
2021/01/14 08:57:52;;;;;;;7.68;1.20;;;3.30;99.90;;;;;;5071594;28;20037;-70
2021/01/14 09:00:18;;;;;;;4.07;0.98;;;3.30;99.90;;;;;;5082908;28;20073;-67
2021/01/14 09:02:44;;;;;;;9.57;0.98;;;3.40;99.90;;;;;;5090947;28;20032;-66
2021/01/14 09:05:11;;;;;;;6.28;0.88;;;3.40;99.90;;;;;;5091943;28;20416;-67
2021/01/14 09:07:36;;;;;;;4.05;0.88;;;3.50;99.90;;;;;;5091126;28;20237;-68
2021/01/14 09:10:02;;;;;;;5.65;1.10;;;3.40;99.90;;;;;;5082115;28;20028;-68
2021/01/14 09:12:28;;;;;;;5.47;1.15;;;3.50;99.90;;;;;;5085576;28;20082;-67
2021/01/14 09:14:54;;;;;;;2.00;1.00;;;3.50;99.90;;;;;;5089971;28;20468;-68
2021/01/14 09:17:19;;;;;;;3.38;1.10;;;3.50;99.90;;;;;;5088916;28;20047;-68
2021/01/14 09:19:54;;;;;;;4.25;1.35;;;3.50;99.90;;;;;;5092152;28;20020;-68
2021/01/14 09:22:26;;;;;;;9.80;1.08;;;3.50;99.90;;;;;;5091351;28;20387;-68
2021/01/14 09:24:52;;;;;;;5.82;1.85;;;3.50;99.90;;;;;;5087705;28;20054;-67
2021/01/14 09:27:18;;;;;;;8.02;1.60;;;3.50;99.90;;;;;;5092278;28;20115;-67
2021/01/14 09:29:44;;;;;;;4.32;1.27;;;3.50;99.90;;;;;;5087695;28;20020;-68
2021/01/14 09:32:13;;;;;;;4.70;1.48;;;3.60;99.90;;;;;;5088550;28;20024;-67
2021/01/14 09:34:39;;;;;;;4.95;1.27;;;3.50;99.90;;;;;;5092812;28;20031;-69
2021/01/14 09:37:18;;;;;;;4.93;1.00;;;3.50;99.90;;;;;;5080688;28;20028;-68
2021/01/14 09:39:45;;;;;;;6.93;1.23;;;3.60;99.90;;;;;;5088649;28;20043;-68
2021/01/14 09:42:17;;;;;;;4.15;1.30;;;3.60;99.90;;;;;;5093170;28;20063;-68
2021/01/14 09:44:43;;;;;;;5.50;1.15;;;3.60;99.90;;;;;;5092459;28;20024;-68
2021/01/14 09:47:09;;;;;;;2.80;1.30;;;3.70;99.90;;;;;;5081159;28;20029;-68
2021/01/14 09:49:35;;;;;;;6.20;1.58;;;3.80;99.90;;;;;;5087222;28;20559;-70
2021/01/14 09:52:01;;;;;;;7.40;1.08;;;3.80;99.90;;;;;;5074748;28;20067;-68
2021/01/14 09:54:28;;;;;;;5.70;1.10;;;3.80;99.90;;;;;;5074839;28;20048;-66
2021/01/14 09:56:55;;;;;;;6.78;1.88;;;3.80;99.90;;;;;;5089111;28;20028;-67
2021/01/14 09:59:36;;;;;;;6.63;1.30;;;3.90;99.90;;;;;;5093448;28;20026;-68
2021/01/14 10:02:16;;;;;;;11.07;1.58;;;3.80;99.90;;;;;;5092875;28;20028;-68
2021/01/14 10:04:57;;;;;;;5.70;1.40;;;3.80;99.90;;;;;;5091131;28;20024;-68
2021/01/14 10:07:25;;;;;;;9.15;1.50;;;3.90;99.90;;;;;;5091899;28;20325;-67
2021/01/14 10:09:53;;;;;;;8.48;1.77;;;3.90;99.90;;;;;;5092209;28;20363;-68
2021/01/14 10:12:18;;;;;;;7.45;1.27;;;3.90;99.90;;;;;;5091189;28;20035;-69
2021/01/14 10:14:44;;;;;;;4.85;1.27;;;3.90;99.90;;;;;;5091988;28;20095;-67
2021/01/14 10:17:17;;;;;;;5.75;1.38;;;3.90;99.90;;;;;;5092972;28;20028;-68
2021/01/14 10:19:49;;;;;;;5.70;1.70;;;4.00;99.90;;;;;;5093885;28;20020;-68
2021/01/14 10:22:16;;;;;;;9.48;1.35;;;4.00;99.90;;;;;;5094584;28;20024;-67
2021/01/14 10:24:41;;;;;;;5.82;1.20;;;4.00;99.90;;;;;;5081272;28;20111;-67
2021/01/14 10:27:18;;;;;;;4.45;1.17;;;4.00;99.90;;;;;;5093204;28;20551;-67
2021/01/14 10:29:45;;;;;;;9.23;1.02;;;4.40;99.90;;;;;;5094777;28;20036;-67
2021/01/14 10:32:21;;;;;;;5.45;2.22;;;4.00;99.90;;;;;;5093427;28;20103;-68
2021/01/14 10:34:47;;;;;;;5.30;1.33;;;4.10;99.90;;;;;;5093706;28;20032;-68
2021/01/14 10:37:30;;;;;;;5.38;1.42;;;4.00;99.90;;;;;;5094101;28;20070;-69
2021/01/14 10:39:58;;;;;;;11.73;1.73;;;4.10;99.90;;;;;;5093754;28;20321;-68
2021/01/14 10:42:37;;;;;;;3.95;1.63;;;4.00;99.90;;;;;;5088412;28;20092;-68
2021/01/14 10:45:12;;;;;;;9.05;1.35;;;4.10;99.90;;;;;;5091279;28;20028;-69
2021/01/14 10:47:42;;;;;;;8.30;1.88;;;4.10;99.90;;;;;;5087601;28;20419;-68
2021/01/14 10:50:22;;;;;;;4.75;1.20;;;4.10;99.90;;;;;;5084161;28;20024;-68
2021/01/14 10:52:55;;;;;;;4.60;1.80;;;4.20;99.90;;;;;;5094106;28;20028;-68
2021/01/14 10:55:20;;;;;;;4.25;1.80;;;4.20;99.90;;;;;;5087469;28;20390;-68
2021/01/14 10:58:05;;;;;;;5.43;1.63;;;4.20;99.90;;;;;;5087093;28;20028;-68
2021/01/14 11:00:36;;;;;;;11.20;1.52;;;4.20;99.90;;;;;;5090629;28;20044;-68
2021/01/14 11:03:10;;;;;;;9.23;1.70;;;4.20;99.90;;;;;;5085362;28;20433;-68
2021/01/14 11:06:08;;;;;;;5.00;1.75;;;4.20;99.90;;;;;;5089457;28;20029;-67
2021/01/14 11:08:42;;;;;;;8.30;1.63;;;4.20;99.90;;;;;;5054232;28;20122;-68
2021/01/14 11:11:12;;;;;;;7.07;1.70;;;4.20;99.90;;;;;;5076257;28;20042;-68
2021/01/14 11:13:49;;;;;;;7.55;2.58;;;4.20;99.90;;;;;;5073360;28;20025;-68
2021/01/14 11:16:19;;;;;;;5.82;1.95;;;4.20;99.90;;;;;;5082395;28;20395;-68
2021/01/14 11:18:47;;;;;;;7.85;2.47;;;4.20;99.90;;;;;;5093886;28;20039;-68
2021/01/14 11:21:14;;;;;;;7.95;2.42;;;4.20;99.90;;;;;;5091364;28;20058;-68
2021/01/14 11:23:40;;;;;;;9.30;3.47;;;4.20;99.90;;;;;;5071906;28;20127;-68
2021/01/14 11:26:07;;;;;;;9.23;2.28;;;4.20;99.90;;;;;;5073068;28;20127;-69
2021/01/14 11:28:41;;;;;;;9.63;2.45;;;4.20;99.90;;;;;;5073137;28;20032;-68
2021/01/14 11:31:07;;;;;;;7.75;2.47;;;4.20;99.90;;;;;;5073280;28;20059;-68
2021/01/14 11:33:33;;;;;;;5.47;2.35;;;4.30;99.90;;;;;;5072553;28;20495;-67
2021/01/14 11:35:59;;;;;;;4.90;1.60;;;4.30;99.90;;;;;;5072250;28;20048;-69
2021/01/14 11:38:25;;;;;;;7.78;1.67;;;4.40;99.90;;;;;;5072545;28;20054;-68
2021/01/14 11:40:51;;;;;;;8.73;1.70;;;4.40;99.90;;;;;;5072775;28;20067;-67
2021/01/14 11:43:17;;;;;;;3.85;2.15;;;4.30;99.90;;;;;;5071912;28;20024;-67
2021/01/14 11:45:43;;;;;;;4.40;2.10;;;4.30;99.90;;;;;;5072702;28;20048;-68
2021/01/14 11:48:08;;;;;;;8.85;1.92;;;4.30;99.90;;;;;;5073002;28;20050;-68
2021/01/14 11:50:34;;;;;;;3.50;2.05;;;4.30;99.90;;;;;;5071084;28;20032;-68
2021/01/14 11:53:00;;;;;;;7.38;2.15;;;4.30;99.90;;;;;;5072146;28;20358;-69
2021/01/14 11:55:25;;;;;;;5.65;2.00;;;4.30;99.90;;;;;;5075441;28;20024;-68
2021/01/14 11:57:51;;;;;;;6.65;2.00;;;4.30;99.90;;;;;;5071582;28;20029;-69
2021/01/14 12:00:17;;;;;;;8.10;2.20;;;4.30;99.90;;;;;;5074361;28;20082;-67
2021/01/14 12:02:43;;;;;;;10.70;2.20;;;4.30;99.90;;;;;;5075586;28;20020;-67
2021/01/14 12:05:09;;;;;;;5.30;2.20;;;4.30;99.90;;;;;;5073103;28;20021;-68
2021/01/14 12:07:34;;;;;;;12.35;2.80;;;4.30;99.90;;;;;;5072290;28;20056;-68
2021/01/14 12:10:00;;;;;;;10.10;2.80;;;4.30;99.90;;;;;;5072416;28;20119;-67
2021/01/14 12:12:26;;;;;;;5.80;2.30;;;4.30;99.90;;;;;;5071464;28;20024;-68
2021/01/14 12:14:51;;;;;;;9.82;2.75;;;4.40;99.90;;;;;;5072413;28;20031;-67
2021/01/14 12:17:17;;;;;;;11.45;2.60;;;4.40;99.90;;;;;;5071934;28;20111;-68
2021/01/14 12:19:42;;;;;;;7.13;4.10;;;4.40;99.90;;;;;;5071542;28;20025;-68
2021/01/14 12:22:08;;;;;;;7.10;2.75;;;4.40;99.90;;;;;;5072251;28;20165;-68
2021/01/14 12:24:34;;;;;;;5.30;3.05;;;4.30;99.90;;;;;;5071843;28;20032;-68
2021/01/14 12:27:00;;;;;;;6.15;2.47;;;4.30;99.90;;;;;;5090002;28;20115;-68
2021/01/14 12:29:26;;;;;;;8.35;2.50;;;4.40;99.90;;;;;;5092093;28;20063;-67
2021/01/14 12:31:52;;;;;;;5.78;2.40;;;4.30;99.90;;;;;;5092303;28;20417;-68
2021/01/14 12:34:18;;;;;;;5.30;2.22;;;4.40;99.90;;;;;;5091464;28;20052;-67
2021/01/14 12:36:44;;;;;;;6.70;2.75;;;4.40;99.90;;;;;;5091844;28;20116;-67
2021/01/14 12:39:11;;;;;;;12.45;4.03;;;4.40;99.90;;;;;;5091427;28;20024;-68
2021/01/14 12:41:36;;;;;;;13.15;2.63;;;4.40;99.90;;;;;;5092128;28;20074;-68
2021/01/14 12:44:03;;;;;;;8.02;2.60;;;4.40;99.90;;;;;;5077940;28;20537;-68
2021/01/14 12:46:38;;;;;;;5.35;2.53;;;4.40;99.90;;;;;;5091123;28;20108;-68
2021/01/14 12:49:06;;;;;;;4.78;2.45;;;4.40;99.90;;;;;;5092031;28;20016;-67
2021/01/14 12:51:31;;;;;;;4.45;2.97;;;4.30;99.90;;;;;;5091696;28;20048;-68
2021/01/14 12:53:57;;;;;;;3.85;2.30;;;4.30;99.90;;;;;;5090822;28;20200;-68
2021/01/14 12:56:23;;;;;;;3.45;2.17;;;4.30;99.90;;;;;;5091660;28;20027;-68
2021/01/14 12:58:48;;;;;;;7.63;2.90;;;4.30;99.90;;;;;;5092270;28;20048;-69
2021/01/14 13:01:14;;;;;;;11.55;3.00;;;4.30;99.90;;;;;;5091133;28;20531;-69
2021/01/14 13:03:39;;;;;;;7.25;2.97;;;4.30;99.90;;;;;;5091872;28;20111;-68
2021/01/14 13:06:05;;;;;;;6.80;2.95;;;4.40;99.90;;;;;;5091952;28;20396;-67
2021/01/14 13:08:31;;;;;;;8.30;3.15;;;4.40;99.90;;;;;;5091566;28;20073;-67